createdAt,value
2023-05-05T00:02:17.928Z,1.38
2023-05-05T00:04:46.161Z,1.41
2023-05-05T00:07:15.437Z,1.41
2023-05-05T00:09:44.053Z,1.32
2023-05-05T00:12:12.342Z,1.38
2023-05-05T00:14:40.251Z,1.43
2023-05-05T00:17:08.132Z,1.42
2023-05-05T00:19:36.139Z,1.20
2023-05-05T00:22:03.977Z,1.26
2023-05-05T00:24:33.319Z,1.20
2023-05-05T00:27:02.162Z,1.21
2023-05-05T00:29:30.272Z,1.27
2023-05-05T00:31:58.091Z,1.28
2023-05-05T00:34:26.124Z,1.27
2023-05-05T00:36:54.115Z,1.16
2023-05-05T00:39:21.953Z,1.18
2023-05-05T00:41:51.803Z,1.16
2023-05-05T00:44:19.619Z,1.20
2023-05-05T00:46:47.583Z,1.06
2023-05-05T00:49:16.573Z,1.13
2023-05-05T00:51:44.438Z,1.17
2023-05-05T00:54:12.328Z,1.11
2023-05-05T00:56:40.610Z,1.03
2023-05-05T00:59:09.943Z,0.96
2023-05-05T01:01:38.046Z,0.89
2023-05-05T01:04:06.362Z,0.81
2023-05-05T01:06:48.263Z,0.79
2023-05-05T01:09:25.871Z,0.63
2023-05-05T01:12:02.126Z,0.78
2023-05-05T01:14:41.038Z,0.71
2023-05-05T01:17:17.143Z,0.69
2023-05-05T01:20:00.403Z,0.65
2023-05-05T01:22:39.441Z,0.54
2023-05-05T01:25:38.188Z,0.59
2023-05-05T01:28:25.336Z,0.68
2023-05-05T01:31:10.897Z,0.68
2023-05-05T01:33:45.246Z,0.68
2023-05-05T01:36:22.911Z,0.66
2023-05-05T01:38:56.956Z,0.64
2023-05-05T01:41:29.612Z,0.65
2023-05-05T01:44:00.915Z,0.62
2023-05-05T01:46:29.489Z,0.30
2023-05-05T01:49:00.305Z,0.60
2023-05-05T01:51:29.152Z,0.61
2023-05-05T01:54:00.259Z,0.65
2023-05-05T01:56:30.250Z,0.60
2023-05-05T01:59:01.256Z,0.62
2023-05-05T02:01:30.528Z,0.63
2023-05-05T02:04:02.680Z,0.57
2023-05-05T02:06:32.441Z,0.63
2023-05-05T02:09:01.508Z,0.61
2023-05-05T02:11:30.808Z,0.62
2023-05-05T02:14:00.106Z,0.61
2023-05-05T02:16:31.284Z,0.61
2023-05-05T02:19:05.072Z,0.62
2023-05-05T02:21:33.838Z,0.59
2023-05-05T02:24:02.235Z,0.58
2023-05-05T02:26:31.357Z,0.56
2023-05-05T02:29:05.295Z,0.57
2023-05-05T02:31:35.800Z,0.57
2023-05-05T02:34:08.469Z,0.53
2023-05-05T02:36:40.835Z,0.50
2023-05-05T02:39:14.384Z,0.50
2023-05-05T02:41:43.929Z,0.45
2023-05-05T02:44:15.752Z,0.52
2023-05-05T02:46:44.012Z,0.46
2023-05-05T02:49:13.331Z,0.45
2023-05-05T02:51:41.215Z,0.39
2023-05-05T02:54:09.326Z,0.43
2023-05-05T02:56:42.090Z,0.39
2023-05-05T02:59:16.195Z,0.40
2023-05-05T03:02:02.177Z,0.03
2023-05-05T03:04:39.556Z,0.45
2023-05-05T03:07:12.116Z,0.04
2023-05-05T03:09:44.632Z,0.55
2023-05-05T03:12:17.814Z,0.52
2023-05-05T03:14:47.146Z,0.50
2023-05-05T03:17:17.750Z,0.48
2023-05-05T03:19:49.093Z,0.48
2023-05-05T03:22:17.106Z,0.50
2023-05-05T03:24:51.503Z,0.50
2023-05-05T03:27:20.427Z,0.54
2023-05-05T03:29:48.265Z,0.56
2023-05-05T03:32:16.385Z,0.56
2023-05-05T03:34:44.207Z,0.59
2023-05-05T03:37:13.405Z,0.61
2023-05-05T03:39:41.449Z,0.66
2023-05-05T03:42:09.319Z,0.71
2023-05-05T03:44:37.138Z,0.74
2023-05-05T03:47:05.340Z,0.78
2023-05-05T03:49:33.154Z,0.81
2023-05-05T03:52:01.022Z,0.82
2023-05-05T03:54:30.535Z,0.84
2023-05-05T03:56:58.366Z,0.88
2023-05-05T03:59:26.193Z,0.89
2023-05-05T04:01:54.389Z,0.91
2023-05-05T04:04:22.281Z,0.92
2023-05-05T04:06:50.149Z,0.95
2023-05-05T04:09:18.236Z,1.02
2023-05-05T04:11:47.441Z,1.10
2023-05-05T04:14:15.275Z,1.06
2023-05-05T04:16:43.420Z,1.29
2023-05-05T04:19:13.405Z,1.37
2023-05-05T04:21:41.251Z,1.17
2023-05-05T04:24:09.869Z,1.48
2023-05-05T04:26:37.696Z,1.56
2023-05-05T04:29:06.951Z,1.65
2023-05-05T04:31:35.002Z,1.72
2023-05-05T04:34:02.931Z,1.79
2023-05-05T04:36:30.787Z,1.87
2023-05-05T04:38:58.896Z,1.97
2023-05-05T04:41:28.239Z,2.03
2023-05-05T04:43:57.866Z,2.10
2023-05-05T04:46:27.382Z,2.20
2023-05-05T04:48:55.247Z,2.30
2023-05-05T04:51:23.063Z,2.37
2023-05-05T04:53:51.133Z,2.46
2023-05-05T04:56:18.955Z,2.44
2023-05-05T04:58:46.865Z,2.57
2023-05-05T05:01:14.864Z,2.63
2023-05-05T05:03:44.264Z,2.70
2023-05-05T05:06:12.154Z,2.77
2023-05-05T05:08:40.107Z,2.83
2023-05-05T05:11:07.958Z,2.89
2023-05-05T05:13:35.843Z,2.90
2023-05-05T05:16:04.120Z,3.05
2023-05-05T05:18:32.090Z,3.11
2023-05-05T05:21:01.492Z,3.18
2023-05-05T05:23:29.517Z,3.24
2023-05-05T05:25:57.622Z,3.21
2023-05-05T05:28:25.835Z,3.24
2023-05-05T05:30:53.881Z,3.44
2023-05-05T05:33:21.698Z,3.53
2023-05-05T05:35:49.518Z,3.57
2023-05-05T05:38:19.042Z,3.61
2023-05-05T05:40:46.891Z,3.66
2023-05-05T05:43:14.745Z,3.64
2023-05-05T05:45:42.920Z,3.71
2023-05-05T05:48:10.848Z,3.74
2023-05-05T05:50:38.705Z,3.79
2023-05-05T05:53:07.013Z,3.84
2023-05-05T05:55:36.454Z,3.91
2023-05-05T05:58:04.330Z,3.98
2023-05-05T06:00:32.306Z,4.01
2023-05-05T06:03:02.598Z,4.12
2023-05-05T06:05:30.468Z,4.19
2023-05-05T06:07:58.655Z,4.27
2023-05-05T06:10:28.294Z,4.32
2023-05-05T06:12:57.805Z,4.32
2023-05-05T06:15:26.084Z,4.35
2023-05-05T06:17:53.977Z,4.23
2023-05-05T06:20:21.932Z,4.33
2023-05-05T06:22:49.936Z,4.51
2023-05-05T06:25:17.887Z,4.49
2023-05-05T06:27:46.035Z,4.64
2023-05-05T06:30:16.121Z,4.48
2023-05-05T06:32:44.000Z,4.71
2023-05-05T06:35:11.957Z,4.80
2023-05-05T06:37:40.059Z,4.85
2023-05-05T06:40:10.509Z,4.89
2023-05-05T06:42:38.683Z,4.90
2023-05-05T06:45:07.529Z,4.95
2023-05-05T06:47:37.246Z,4.98
2023-05-05T06:50:05.832Z,5.08
2023-05-05T06:52:34.034Z,5.20
2023-05-05T06:55:01.860Z,5.31
2023-05-05T06:57:29.725Z,5.45
2023-05-05T06:59:57.763Z,5.60
2023-05-05T07:02:26.916Z,5.70
2023-05-05T07:04:56.397Z,5.69
2023-05-05T07:07:24.671Z,5.97
2023-05-05T07:09:52.535Z,6.22
2023-05-05T07:12:20.374Z,6.48
2023-05-05T07:14:48.374Z,6.88
2023-05-05T07:17:16.252Z,7.47
2023-05-05T07:19:44.308Z,8.28
2023-05-05T07:22:13.668Z,9.11
2023-05-05T07:24:41.571Z,9.89
2023-05-05T07:27:09.546Z,10.44
2023-05-05T07:29:37.579Z,11.13
2023-05-05T07:32:05.906Z,11.28
2023-05-05T07:34:34.717Z,11.71
2023-05-05T07:37:04.162Z,12.33
2023-05-05T07:39:33.940Z,12.80
2023-05-05T07:42:02.510Z,13.15
2023-05-05T07:44:30.764Z,13.41
2023-05-05T07:46:58.606Z,13.56
2023-05-05T07:49:27.950Z,13.83
2023-05-05T07:51:57.278Z,13.98
2023-05-05T07:54:25.441Z,14.39
2023-05-05T07:56:54.664Z,14.73
2023-05-05T07:59:22.832Z,14.94
2023-05-05T08:01:52.080Z,15.33
2023-05-05T08:04:22.785Z,15.81
2023-05-05T08:06:50.704Z,16.08
2023-05-05T08:09:18.587Z,16.32
2023-05-05T08:11:46.498Z,16.73
2023-05-05T08:14:16.303Z,17.10
2023-05-05T08:16:44.131Z,17.34
2023-05-05T08:19:25.028Z,17.47
2023-05-05T08:21:56.431Z,17.39
2023-05-05T08:24:24.365Z,17.72
2023-05-05T08:26:52.233Z,17.82
2023-05-05T08:29:21.428Z,17.87
2023-05-05T08:31:49.469Z,17.65
2023-05-05T08:34:17.458Z,17.13
2023-05-05T08:36:45.319Z,16.32
2023-05-05T08:39:13.310Z,15.24
2023-05-05T08:41:41.321Z,14.26
2023-05-05T08:44:09.592Z,13.58
2023-05-05T08:46:40.473Z,13.03
2023-05-05T08:49:14.484Z,12.51
2023-05-05T08:51:47.059Z,12.14
2023-05-05T08:54:19.266Z,11.73
2023-05-05T08:56:50.787Z,11.04
2023-05-05T08:59:24.296Z,10.51
2023-05-05T09:01:54.914Z,10.06
2023-05-05T09:04:23.069Z,9.91
2023-05-05T09:06:51.365Z,9.55
2023-05-05T09:09:20.649Z,8.72
2023-05-05T09:11:48.586Z,9.21
2023-05-05T09:14:16.470Z,9.34
2023-05-05T09:16:44.542Z,9.34
2023-05-05T09:19:13.755Z,9.53
2023-05-05T09:21:48.761Z,9.41
2023-05-05T09:24:16.657Z,9.46
2023-05-05T09:26:45.658Z,9.52
2023-05-05T09:29:19.334Z,9.60
2023-05-05T09:32:05.403Z,9.52
2023-05-05T09:34:36.600Z,10.19
2023-05-05T09:37:06.206Z,11.05
2023-05-05T09:39:34.403Z,11.15
2023-05-05T09:42:03.947Z,13.16
2023-05-05T09:44:36.354Z,14.11
2023-05-05T09:47:09.530Z,14.77
2023-05-05T09:49:41.532Z,15.25
2023-05-05T09:52:19.267Z,14.88
2023-05-05T09:54:55.161Z,14.79
2023-05-05T09:57:30.608Z,14.71
2023-05-05T10:00:00.246Z,14.75
2023-05-05T10:02:33.950Z,14.39
2023-05-05T10:05:08.876Z,13.65
2023-05-05T10:07:37.288Z,13.08
2023-05-05T10:10:06.311Z,12.56
2023-05-05T10:12:36.671Z,12.13
2023-05-05T10:15:05.856Z,11.48
2023-05-05T10:17:36.891Z,11.33
2023-05-05T10:20:05.946Z,11.07
2023-05-05T10:22:36.743Z,10.64
2023-05-05T10:25:11.090Z,10.06
2023-05-05T10:27:44.894Z,9.88
2023-05-05T10:30:18.985Z,9.71
2023-05-05T10:33:04.138Z,9.89
2023-05-05T10:35:42.610Z,9.72
2023-05-05T10:38:13.846Z,9.84
2023-05-05T10:40:45.472Z,9.87
2023-05-05T10:43:15.259Z,9.62
2023-05-05T10:45:44.008Z,10.06
2023-05-05T10:48:21.823Z,10.22
2023-05-05T10:50:54.159Z,10.35
2023-05-05T10:53:29.223Z,9.51
2023-05-05T10:56:06.954Z,9.98
2023-05-05T10:58:47.084Z,9.50
2023-05-05T11:01:31.072Z,9.69
2023-05-05T11:04:19.212Z,9.63
2023-05-05T11:07:26.028Z,9.75
2023-05-05T11:10:01.690Z,9.48
2023-05-05T11:12:30.064Z,9.73
2023-05-05T11:15:38.043Z,10.17
2023-05-05T11:18:08.181Z,10.72
2023-05-05T11:21:07.380Z,11.50
2023-05-05T11:23:35.504Z,12.09
2023-05-05T11:26:04.776Z,12.46
2023-05-05T11:28:32.878Z,12.37
2023-05-05T11:31:20.344Z,12.46
2023-05-05T11:33:49.435Z,12.46
2023-05-05T11:36:17.931Z,12.40
2023-05-05T11:39:03.532Z,12.37
2023-05-05T11:42:05.325Z,12.08
2023-05-05T11:44:36.311Z,11.82
2023-05-05T11:47:30.224Z,11.55
2023-05-05T11:49:58.502Z,11.41
2023-05-05T11:52:28.071Z,11.29
2023-05-05T11:55:02.051Z,11.21
2023-05-05T11:57:31.836Z,11.14
2023-05-05T12:00:02.074Z,11.13
2023-05-05T12:02:31.539Z,11.09
2023-05-05T12:05:01.416Z,10.78
2023-05-05T12:07:30.473Z,10.34
2023-05-05T12:09:58.867Z,10.06
2023-05-05T12:12:39.480Z,9.71
2023-05-05T12:15:09.314Z,10.01
2023-05-05T12:17:40.386Z,10.07
2023-05-05T12:20:10.433Z,10.52
2023-05-05T12:22:38.734Z,11.39
2023-05-05T12:25:08.855Z,11.64
2023-05-05T12:27:38.831Z,11.65
2023-05-05T12:30:16.089Z,11.78
2023-05-05T12:32:44.578Z,11.97
2023-05-05T12:35:13.614Z,12.01
2023-05-05T12:37:42.190Z,11.64
2023-05-05T12:40:46.673Z,11.63
2023-05-05T12:43:32.990Z,12.11
2023-05-05T12:46:06.190Z,13.09
2023-05-05T12:48:35.202Z,13.93
2023-05-05T12:51:17.401Z,14.30
2023-05-05T12:53:46.001Z,15.42
2023-05-05T12:56:33.619Z,16.21
2023-05-05T12:59:03.956Z,17.35
2023-05-05T13:01:32.052Z,18.42
2023-05-05T13:04:10.983Z,18.50
2023-05-05T13:06:39.446Z,17.00
2023-05-05T13:09:09.034Z,15.29
2023-05-05T13:11:38.128Z,14.48
2023-05-05T13:14:08.166Z,13.92
2023-05-05T13:16:36.122Z,13.19
2023-05-05T13:19:04.115Z,12.54
2023-05-05T13:21:32.004Z,12.09
2023-05-05T13:24:12.463Z,11.49
2023-05-05T13:26:47.850Z,11.04
2023-05-05T13:29:17.539Z,10.68
2023-05-05T13:31:45.946Z,10.60
2023-05-05T13:34:14.240Z,10.50
2023-05-05T13:36:42.089Z,10.65
2023-05-05T13:39:09.913Z,11.43
2023-05-05T13:41:37.949Z,12.84
2023-05-05T13:44:05.977Z,14.47
2023-05-05T13:46:36.317Z,15.16
2023-05-05T13:49:04.505Z,15.09
2023-05-05T13:51:34.680Z,13.90
2023-05-05T13:54:03.039Z,12.81
2023-05-05T13:56:31.342Z,13.21
2023-05-05T13:58:59.959Z,12.36
2023-05-05T14:01:27.935Z,12.34
2023-05-05T14:03:57.898Z,12.01
2023-05-05T14:06:26.465Z,11.49
2023-05-05T14:08:54.468Z,11.43
2023-05-05T14:11:23.001Z,12.18
2023-05-05T14:13:52.029Z,12.09
2023-05-05T14:16:20.154Z,12.83
2023-05-05T14:18:48.267Z,14.36
2023-05-05T14:21:17.454Z,15.57
2023-05-05T14:23:45.306Z,16.22
2023-05-05T14:26:13.384Z,17.01
2023-05-05T14:28:42.268Z,17.42
2023-05-05T14:31:11.210Z,17.11
2023-05-05T14:33:39.280Z,16.91
2023-05-05T14:36:07.675Z,16.85
2023-05-05T14:38:36.953Z,17.73
2023-05-05T14:41:05.656Z,17.82
2023-05-05T14:43:33.612Z,16.92
2023-05-05T14:46:06.825Z,16.83
2023-05-05T14:48:35.511Z,17.49
2023-05-05T14:51:04.285Z,17.71
2023-05-05T14:53:32.251Z,17.56
2023-05-05T14:56:02.214Z,17.09
2023-05-05T14:58:31.129Z,16.11
2023-05-05T15:00:59.106Z,14.88
2023-05-05T15:03:27.224Z,14.22
2023-05-05T15:05:55.155Z,13.65
2023-05-05T15:08:23.270Z,12.66
2023-05-05T15:10:51.167Z,11.87
2023-05-05T15:13:20.478Z,11.43
2023-05-05T15:15:49.067Z,11.10
2023-05-05T15:18:17.329Z,10.82
2023-05-05T15:20:45.238Z,10.58
2023-05-05T15:23:13.248Z,10.35
2023-05-05T15:25:41.212Z,10.22
2023-05-05T15:28:09.120Z,10.08
2023-05-05T15:30:38.576Z,9.86
2023-05-05T15:33:07.056Z,8.99
2023-05-05T15:35:36.184Z,9.98
2023-05-05T15:38:04.348Z,9.88
2023-05-05T15:40:32.423Z,9.67
2023-05-05T15:43:00.318Z,9.59
2023-05-05T15:45:28.273Z,9.31
2023-05-05T15:47:57.580Z,9.19
2023-05-05T15:50:25.420Z,9.74
2023-05-05T15:52:57.054Z,10.19
2023-05-05T15:55:25.140Z,11.52
2023-05-05T15:57:53.019Z,12.27
2023-05-05T16:00:21.466Z,12.32
2023-05-05T16:02:49.559Z,12.72
2023-05-05T16:05:20.727Z,12.80
2023-05-05T16:07:51.045Z,12.33
2023-05-05T16:10:20.512Z,11.69
2023-05-05T16:12:48.492Z,11.97
2023-05-05T16:15:16.540Z,11.55
2023-05-05T16:17:44.425Z,10.88
2023-05-05T16:20:13.190Z,10.13
2023-05-05T16:22:42.753Z,9.51
2023-05-05T16:25:11.133Z,9.22
2023-05-05T16:27:39.125Z,8.64
2023-05-05T16:30:09.004Z,8.64
2023-05-05T16:32:36.957Z,8.41
2023-05-05T16:35:07.137Z,8.26
2023-05-05T16:37:35.423Z,8.12
2023-05-05T16:40:05.784Z,8.17
2023-05-05T16:42:33.678Z,8.53
2023-05-05T16:45:01.709Z,9.12
2023-05-05T16:47:29.812Z,9.74
2023-05-05T16:49:57.714Z,10.55
2023-05-05T16:52:25.861Z,10.84
2023-05-05T16:54:55.743Z,10.84
2023-05-05T16:57:25.246Z,10.73
2023-05-05T16:59:56.886Z,11.07
2023-05-05T17:02:24.772Z,11.66
2023-05-05T17:04:52.807Z,11.78
2023-05-05T17:07:20.931Z,11.73
2023-05-05T17:09:48.773Z,11.48
2023-05-05T17:12:16.630Z,10.80
2023-05-05T17:14:46.936Z,10.14
2023-05-05T17:17:15.453Z,9.04
2023-05-05T17:19:44.847Z,9.09
2023-05-05T17:22:12.912Z,8.72
2023-05-05T17:24:40.982Z,8.28
2023-05-05T17:27:08.804Z,8.12
2023-05-05T17:29:40.640Z,7.90
2023-05-05T17:32:10.199Z,7.78
2023-05-05T17:34:38.386Z,7.58
2023-05-05T17:37:06.353Z,7.38
2023-05-05T17:39:34.306Z,7.47
2023-05-05T17:42:02.394Z,7.33
2023-05-05T17:44:31.557Z,7.17
2023-05-05T17:46:59.451Z,7.11
2023-05-05T17:49:28.801Z,6.94
2023-05-05T17:51:56.744Z,6.92
2023-05-05T17:54:24.553Z,6.88
2023-05-05T17:56:52.645Z,6.82
2023-05-05T17:59:20.575Z,6.73
2023-05-05T18:01:48.450Z,6.64
2023-05-05T18:04:16.529Z,6.49
2023-05-05T18:06:45.814Z,6.25
2023-05-05T18:09:13.630Z,6.02
2023-05-05T18:11:42.193Z,6.01
2023-05-05T18:14:10.970Z,5.98
2023-05-05T18:16:38.818Z,5.87
2023-05-05T18:19:07.283Z,5.77
2023-05-05T18:21:35.271Z,5.66
2023-05-05T18:24:18.638Z,5.57
2023-05-05T18:26:49.021Z,5.62
2023-05-05T18:29:17.057Z,5.58
2023-05-05T18:31:45.003Z,5.54
2023-05-05T18:34:13.278Z,5.52
2023-05-05T18:36:41.128Z,5.47
2023-05-05T18:39:10.340Z,5.42
2023-05-05T18:41:38.482Z,5.03
2023-05-05T18:44:06.378Z,5.25
2023-05-05T18:46:34.230Z,5.19
2023-05-05T18:49:02.317Z,5.08
2023-05-05T18:51:30.303Z,5.07
2023-05-05T18:53:58.118Z,5.00
2023-05-05T18:56:27.524Z,4.95
2023-05-05T18:58:55.562Z,4.89
2023-05-05T19:01:23.549Z,4.80
2023-05-05T19:03:51.785Z,4.84
2023-05-05T19:06:19.652Z,4.79
2023-05-05T19:08:47.470Z,4.69
2023-05-05T19:11:15.625Z,4.72
2023-05-05T19:13:45.344Z,4.66
2023-05-05T19:16:13.431Z,4.64
2023-05-05T19:18:41.621Z,4.60
2023-05-05T19:21:09.538Z,4.47
2023-05-05T19:23:38.238Z,4.51
2023-05-05T19:26:06.242Z,4.45
2023-05-05T19:28:34.305Z,4.44
2023-05-05T19:31:03.530Z,4.34
2023-05-05T19:33:31.594Z,4.27
2023-05-05T19:35:59.448Z,4.32
2023-05-05T19:38:27.336Z,4.13
2023-05-05T19:40:55.373Z,4.26
2023-05-05T19:43:23.243Z,4.24
2023-05-05T19:45:51.105Z,4.11
2023-05-05T19:48:21.023Z,4.17
2023-05-05T19:50:48.939Z,4.09
2023-05-05T19:53:16.836Z,3.94
2023-05-05T19:55:44.865Z,4.07
2023-05-05T19:58:12.753Z,3.71
2023-05-05T20:00:40.577Z,4.01
2023-05-05T20:03:09.154Z,3.98
2023-05-05T20:05:38.763Z,3.95
2023-05-05T20:08:06.842Z,3.80
2023-05-05T20:10:34.955Z,3.51
2023-05-05T20:13:02.812Z,3.78
2023-05-05T20:15:31.387Z,3.24
2023-05-05T20:18:00.756Z,3.76
2023-05-05T20:20:28.617Z,3.68
2023-05-05T20:22:57.825Z,3.70
2023-05-05T20:25:26.037Z,3.69
2023-05-05T20:27:53.848Z,3.65
2023-05-05T20:30:21.735Z,3.61
2023-05-05T20:32:49.759Z,3.25
2023-05-05T20:35:17.687Z,3.54
2023-05-05T20:37:46.354Z,3.54
2023-05-05T20:40:16.087Z,3.53
2023-05-05T20:42:43.925Z,3.47
2023-05-05T20:45:12.618Z,3.42
2023-05-05T20:47:40.820Z,3.34
2023-05-05T20:50:09.692Z,3.38
2023-05-05T20:52:37.804Z,3.35
2023-05-05T20:55:06.447Z,3.32
2023-05-05T20:57:35.649Z,3.31
2023-05-05T21:00:04.203Z,3.30
2023-05-05T21:02:33.465Z,3.28
2023-05-05T21:05:03.079Z,3.00
2023-05-05T21:07:33.203Z,3.23
2023-05-05T21:10:01.635Z,3.21
2023-05-05T21:12:29.934Z,3.01
2023-05-05T21:14:59.656Z,3.13
2023-05-05T21:17:28.177Z,3.11
2023-05-05T21:19:56.926Z,3.07
2023-05-05T21:22:25.033Z,3.07
2023-05-05T21:24:53.031Z,3.05
2023-05-05T21:27:22.211Z,3.01
2023-05-05T21:29:52.050Z,2.90
2023-05-05T21:32:21.486Z,2.95
2023-05-05T21:34:49.453Z,2.91
2023-05-05T21:37:17.398Z,2.81
2023-05-05T21:39:45.528Z,2.78
2023-05-05T21:42:13.386Z,2.86
2023-05-05T21:44:41.198Z,2.83
2023-05-05T21:47:09.402Z,2.80
2023-05-05T21:49:38.680Z,2.78
2023-05-05T21:52:06.550Z,2.66
2023-05-05T21:54:34.704Z,2.68
2023-05-05T21:57:02.854Z,2.61
2023-05-05T21:59:30.760Z,2.69
2023-05-05T22:01:59.057Z,2.69
2023-05-05T22:04:26.958Z,2.68
2023-05-05T22:06:56.579Z,2.57
2023-05-05T22:09:24.796Z,2.48
2023-05-05T22:11:52.734Z,2.35
2023-05-05T22:14:21.439Z,2.59
2023-05-05T22:16:49.566Z,2.48
2023-05-05T22:19:17.404Z,2.57
2023-05-05T22:21:45.225Z,2.55
2023-05-05T22:24:14.674Z,2.52
2023-05-05T22:26:43.435Z,2.51
2023-05-05T22:29:11.588Z,2.48
2023-05-05T22:31:39.827Z,2.47
2023-05-05T22:34:07.836Z,2.43
2023-05-05T22:36:35.659Z,2.36
2023-05-05T22:39:03.773Z,2.40
2023-05-05T22:41:32.987Z,2.37
2023-05-05T22:44:00.811Z,2.35
2023-05-05T22:46:29.039Z,2.32
2023-05-05T22:48:56.914Z,2.28
2023-05-05T22:51:24.864Z,2.19
2023-05-05T22:53:53.053Z,2.23
2023-05-05T22:56:20.979Z,2.22
2023-05-05T22:58:50.265Z,2.20
2023-05-05T23:01:18.330Z,2.19
2023-05-05T23:03:46.155Z,2.00
2023-05-05T23:06:13.964Z,2.16
2023-05-05T23:08:42.159Z,2.14
2023-05-05T23:11:10.000Z,2.01
2023-05-05T23:13:37.845Z,1.94
2023-05-05T23:16:07.434Z,2.04
2023-05-05T23:18:35.537Z,1.95
2023-05-05T23:21:03.389Z,1.97
2023-05-05T23:23:32.092Z,2.01
2023-05-05T23:25:59.921Z,1.91
2023-05-05T23:28:27.773Z,1.98
2023-05-05T23:30:55.918Z,1.95
2023-05-05T23:33:25.164Z,1.87
2023-05-05T23:35:53.098Z,1.88
2023-05-05T23:38:21.142Z,1.86
2023-05-05T23:40:48.993Z,1.88
2023-05-05T23:43:16.842Z,1.83
2023-05-05T23:45:44.841Z,1.79
2023-05-05T23:48:13.208Z,1.79
2023-05-05T23:50:42.400Z,1.75
2023-05-05T23:53:10.625Z,1.71
2023-05-05T23:55:38.546Z,1.67
2023-05-05T23:58:06.403Z,1.49
